sensor_id;sensor_type;location;lat;lon;timestamp;temperature;humidity
45008;DHT22;30743;52.008;5.644;2023-09-18T00:00:31;25.00;99.90
45008;DHT22;30743;52.008;5.644;2023-09-18T00:02:58;25.10;99.90
45008;DHT22;30743;52.008;5.644;2023-09-18T00:05:24;25.10;99.90
45008;DHT22;30743;52.008;5.644;2023-09-18T00:07:49;25.10;99.90
45008;DHT22;30743;52.008;5.644;2023-09-18T00:10:15;25.20;99.90
45008;DHT22;30743;52.008;5.644;2023-09-18T00:12:40;25.10;99.90
45008;DHT22;30743;52.008;5.644;2023-09-18T00:15:06;25.20;99.90
45008;DHT22;30743;52.008;5.644;2023-09-18T00:17:34;25.10;99.90
45008;DHT22;30743;52.008;5.644;2023-09-18T00:20:00;25.10;99.90
45008;DHT22;30743;52.008;5.644;2023-09-18T00:22:25;25.10;99.90
45008;DHT22;30743;52.008;5.644;2023-09-18T00:24:51;25.10;99.90
45008;DHT22;30743;52.008;5.644;2023-09-18T00:27:16;25.10;99.90
45008;DHT22;30743;52.008;5.644;2023-09-18T00:29:42;25.10;99.90
45008;DHT22;30743;52.008;5.644;2023-09-18T00:32:08;25.00;99.90
45008;DHT22;30743;52.008;5.644;2023-09-18T00:34:33;25.10;99.90
45008;DHT22;30743;52.008;5.644;2023-09-18T00:36:59;25.10;99.90
45008;DHT22;30743;52.008;5.644;2023-09-18T00:39:26;25.10;99.90
45008;DHT22;30743;52.008;5.644;2023-09-18T00:41:51;25.10;99.90
45008;DHT22;30743;52.008;5.644;2023-09-18T00:44:20;25.10;99.90
45008;DHT22;30743;52.008;5.644;2023-09-18T00:46:45;25.10;99.90
45008;DHT22;30743;52.008;5.644;2023-09-18T00:49:11;25.10;99.90
45008;DHT22;30743;52.008;5.644;2023-09-18T00:51:38;25.10;99.90
45008;DHT22;30743;52.008;5.644;2023-09-18T00:54:03;25.00;99.90
45008;DHT22;30743;52.008;5.644;2023-09-18T00:56:29;25.10;99.90
45008;DHT22;30743;52.008;5.644;2023-09-18T00:58:55;25.00;99.90
45008;DHT22;30743;52.008;5.644;2023-09-18T01:01:20;25.00;99.90
45008;DHT22;30743;52.008;5.644;2023-09-18T01:03:49;25.00;99.90
45008;DHT22;30743;52.008;5.644;2023-09-18T01:06:16;24.90;99.90
45008;DHT22;30743;52.008;5.644;2023-09-18T01:08:42;25.00;99.90
45008;DHT22;30743;52.008;5.644;2023-09-18T01:11:19;25.00;99.90
45008;DHT22;30743;52.008;5.644;2023-09-18T01:16:36;25.00;99.90
45008;DHT22;30743;52.008;5.644;2023-09-18T01:19:04;25.00;99.90
45008;DHT22;30743;52.008;5.644;2023-09-18T01:21:30;25.00;99.90
45008;DHT22;30743;52.008;5.644;2023-09-18T01:23:55;25.00;99.90
45008;DHT22;30743;52.008;5.644;2023-09-18T01:26:21;24.90;99.90
45008;DHT22;30743;52.008;5.644;2023-09-18T01:28:46;25.00;99.90
45008;DHT22;30743;52.008;5.644;2023-09-18T01:31:12;24.90;99.90
45008;DHT22;30743;52.008;5.644;2023-09-18T01:33:38;25.00;99.90
45008;DHT22;30743;52.008;5.644;2023-09-18T01:36:06;25.10;99.90
45008;DHT22;30743;52.008;5.644;2023-09-18T01:38:33;25.10;99.90
45008;DHT22;30743;52.008;5.644;2023-09-18T01:40:59;25.10;99.90
45008;DHT22;30743;52.008;5.644;2023-09-18T01:43:26;25.10;99.90
45008;DHT22;30743;52.008;5.644;2023-09-18T01:45:51;25.10;99.90
45008;DHT22;30743;52.008;5.644;2023-09-18T01:48:18;25.10;99.90
45008;DHT22;30743;52.008;5.644;2023-09-18T01:50:44;25.10;99.90
45008;DHT22;30743;52.008;5.644;2023-09-18T01:53:09;25.10;99.90
45008;DHT22;30743;52.008;5.644;2023-09-18T01:55:35;25.10;99.90
45008;DHT22;30743;52.008;5.644;2023-09-18T01:58:00;25.10;99.90
45008;DHT22;30743;52.008;5.644;2023-09-18T02:00:26;25.10;99.90
45008;DHT22;30743;52.008;5.644;2023-09-18T02:02:51;25.00;99.90
45008;DHT22;30743;52.008;5.644;2023-09-18T02:05:17;24.80;99.90
45008;DHT22;30743;52.008;5.644;2023-09-18T02:07:42;24.90;99.90
45008;DHT22;30743;52.008;5.644;2023-09-18T02:10:08;24.90;99.90
45008;DHT22;30743;52.008;5.644;2023-09-18T02:12:34;24.90;99.90
45008;DHT22;30743;52.008;5.644;2023-09-18T02:14:59;24.70;99.90
45008;DHT22;30743;52.008;5.644;2023-09-18T02:17:30;24.60;99.90
45008;DHT22;30743;52.008;5.644;2023-09-18T02:19:55;24.60;99.90
45008;DHT22;30743;52.008;5.644;2023-09-18T02:22:21;24.60;99.90
45008;DHT22;30743;52.008;5.644;2023-09-18T02:24:46;24.60;99.90
45008;DHT22;30743;52.008;5.644;2023-09-18T02:27:12;24.50;99.90
45008;DHT22;30743;52.008;5.644;2023-09-18T02:29:37;24.60;99.90
45008;DHT22;30743;52.008;5.644;2023-09-18T02:32:03;24.60;99.90
45008;DHT22;30743;52.008;5.644;2023-09-18T02:34:29;24.60;99.90
45008;DHT22;30743;52.008;5.644;2023-09-18T02:36:54;24.60;99.90
45008;DHT22;30743;52.008;5.644;2023-09-18T02:39:20;24.50;99.90
45008;DHT22;30743;52.008;5.644;2023-09-18T02:41:45;24.60;99.90
45008;DHT22;30743;52.008;5.644;2023-09-18T02:44:11;24.70;99.90
45008;DHT22;30743;52.008;5.644;2023-09-18T02:46:37;24.80;99.90
45008;DHT22;30743;52.008;5.644;2023-09-18T02:49:03;24.70;99.90
45008;DHT22;30743;52.008;5.644;2023-09-18T02:51:28;24.80;99.90
45008;DHT22;30743;52.008;5.644;2023-09-18T02:53:57;24.90;99.90
45008;DHT22;30743;52.008;5.644;2023-09-18T02:56:22;25.00;99.90
45008;DHT22;30743;52.008;5.644;2023-09-18T02:58:48;25.10;99.90
45008;DHT22;30743;52.008;5.644;2023-09-18T03:01:13;25.10;99.90
45008;DHT22;30743;52.008;5.644;2023-09-18T03:03:39;25.20;99.90
45008;DHT22;30743;52.008;5.644;2023-09-18T03:06:07;25.30;99.90
45008;DHT22;30743;52.008;5.644;2023-09-18T03:08:33;25.40;99.90
45008;DHT22;30743;52.008;5.644;2023-09-18T03:10:58;25.40;99.90
45008;DHT22;30743;52.008;5.644;2023-09-18T03:13:27;25.50;99.90
45008;DHT22;30743;52.008;5.644;2023-09-18T03:15:52;25.50;99.90
45008;DHT22;30743;52.008;5.644;2023-09-18T03:18:18;25.60;99.90
45008;DHT22;30743;52.008;5.644;2023-09-18T03:20:43;25.60;99.90
45008;DHT22;30743;52.008;5.644;2023-09-18T03:23:09;25.60;99.90
45008;DHT22;30743;52.008;5.644;2023-09-18T03:25:35;25.70;99.90
45008;DHT22;30743;52.008;5.644;2023-09-18T03:28:01;25.60;99.90
45008;DHT22;30743;52.008;5.644;2023-09-18T03:30:26;25.60;99.90
45008;DHT22;30743;52.008;5.644;2023-09-18T03:32:52;25.60;99.90
45008;DHT22;30743;52.008;5.644;2023-09-18T03:35:19;25.60;99.90
45008;DHT22;30743;52.008;5.644;2023-09-18T03:37:46;25.50;99.90
45008;DHT22;30743;52.008;5.644;2023-09-18T03:40:12;25.40;99.90
45008;DHT22;30743;52.008;5.644;2023-09-18T03:42:37;25.30;99.90
45008;DHT22;30743;52.008;5.644;2023-09-18T03:45:05;25.10;99.90
45008;DHT22;30743;52.008;5.644;2023-09-18T03:47:30;25.00;99.90
45008;DHT22;30743;52.008;5.644;2023-09-18T03:49:56;25.10;99.90
45008;DHT22;30743;52.008;5.644;2023-09-18T03:52:21;25.10;99.90
45008;DHT22;30743;52.008;5.644;2023-09-18T03:54:47;25.00;99.90
45008;DHT22;30743;52.008;5.644;2023-09-18T03:57:12;24.80;99.90
45008;DHT22;30743;52.008;5.644;2023-09-18T03:59:38;24.70;99.90
45008;DHT22;30743;52.008;5.644;2023-09-18T04:02:04;24.60;99.90
45008;DHT22;30743;52.008;5.644;2023-09-18T04:04:29;24.60;99.90
45008;DHT22;30743;52.008;5.644;2023-09-18T04:06:55;24.70;99.90
45008;DHT22;30743;52.008;5.644;2023-09-18T04:09:20;24.70;99.90
45008;DHT22;30743;52.008;5.644;2023-09-18T04:11:46;24.80;99.90
45008;DHT22;30743;52.008;5.644;2023-09-18T04:14:11;24.80;99.90
45008;DHT22;30743;52.008;5.644;2023-09-18T04:16:37;24.80;99.90
45008;DHT22;30743;52.008;5.644;2023-09-18T04:19:05;24.90;99.90
45008;DHT22;30743;52.008;5.644;2023-09-18T04:21:30;25.00;99.90
45008;DHT22;30743;52.008;5.644;2023-09-18T04:23:56;25.10;99.90
45008;DHT22;30743;52.008;5.644;2023-09-18T04:26:24;25.10;99.90
45008;DHT22;30743;52.008;5.644;2023-09-18T04:28:49;25.20;99.90
45008;DHT22;30743;52.008;5.644;2023-09-18T04:31:15;25.00;99.90
45008;DHT22;30743;52.008;5.644;2023-09-18T04:33:41;25.00;99.90
45008;DHT22;30743;52.008;5.644;2023-09-18T04:36:07;24.90;99.90
45008;DHT22;30743;52.008;5.644;2023-09-18T04:38:33;24.80;99.90
45008;DHT22;30743;52.008;5.644;2023-09-18T04:40:59;24.30;99.90
45008;DHT22;30743;52.008;5.644;2023-09-18T04:43:25;23.90;99.90
45008;DHT22;30743;52.008;5.644;2023-09-18T04:45:51;23.90;99.90
45008;DHT22;30743;52.008;5.644;2023-09-18T04:48:16;23.80;99.90
45008;DHT22;30743;52.008;5.644;2023-09-18T04:50:43;23.70;99.90
45008;DHT22;30743;52.008;5.644;2023-09-18T04:53:09;23.40;99.90
45008;DHT22;30743;52.008;5.644;2023-09-18T04:55:34;23.20;99.90
45008;DHT22;30743;52.008;5.644;2023-09-18T04:58:00;23.20;99.90
45008;DHT22;30743;52.008;5.644;2023-09-18T05:00:26;23.00;99.90
45008;DHT22;30743;52.008;5.644;2023-09-18T05:02:52;23.20;99.90
45008;DHT22;30743;52.008;5.644;2023-09-18T05:05:18;23.20;99.90
45008;DHT22;30743;52.008;5.644;2023-09-18T05:07:44;23.20;99.90
45008;DHT22;30743;52.008;5.644;2023-09-18T05:10:10;23.40;99.90
45008;DHT22;30743;52.008;5.644;2023-09-18T05:12:37;23.30;99.90
45008;DHT22;30743;52.008;5.644;2023-09-18T05:15:03;23.40;99.90
45008;DHT22;30743;52.008;5.644;2023-09-18T05:17:44;23.50;99.90
45008;DHT22;30743;52.008;5.644;2023-09-18T05:20:12;23.50;99.90
45008;DHT22;30743;52.008;5.644;2023-09-18T05:22:41;23.50;99.90
45008;DHT22;30743;52.008;5.644;2023-09-18T05:25:08;23.70;99.90
45008;DHT22;30743;52.008;5.644;2023-09-18T05:27:35;23.90;99.90
45008;DHT22;30743;52.008;5.644;2023-09-18T05:30:01;24.10;99.90
45008;DHT22;30743;52.008;5.644;2023-09-18T05:32:26;24.40;99.90
45008;DHT22;30743;52.008;5.644;2023-09-18T05:34:52;24.40;99.90
45008;DHT22;30743;52.008;5.644;2023-09-18T05:37:17;24.50;99.90
45008;DHT22;30743;52.008;5.644;2023-09-18T05:39:43;24.50;99.90
45008;DHT22;30743;52.008;5.644;2023-09-18T05:42:08;24.60;99.90
45008;DHT22;30743;52.008;5.644;2023-09-18T05:44:34;24.70;99.90
45008;DHT22;30743;52.008;5.644;2023-09-18T05:46:59;24.80;99.90
45008;DHT22;30743;52.008;5.644;2023-09-18T05:49:25;24.80;99.90
45008;DHT22;30743;52.008;5.644;2023-09-18T05:51:50;24.90;99.90
45008;DHT22;30743;52.008;5.644;2023-09-18T05:54:16;24.90;99.90
45008;DHT22;30743;52.008;5.644;2023-09-18T05:56:42;24.90;99.90
45008;DHT22;30743;52.008;5.644;2023-09-18T05:59:07;24.90;99.90
45008;DHT22;30743;52.008;5.644;2023-09-18T06:01:33;25.00;99.90
45008;DHT22;30743;52.008;5.644;2023-09-18T06:03:58;24.90;99.90
45008;DHT22;30743;52.008;5.644;2023-09-18T06:06:24;24.90;99.90
45008;DHT22;30743;52.008;5.644;2023-09-18T06:08:51;24.90;99.90
45008;DHT22;30743;52.008;5.644;2023-09-18T06:11:19;24.90;99.90
45008;DHT22;30743;52.008;5.644;2023-09-18T06:13:44;24.80;99.90
45008;DHT22;30743;52.008;5.644;2023-09-18T06:16:10;24.90;99.90
45008;DHT22;30743;52.008;5.644;2023-09-18T06:18:35;24.90;99.90
45008;DHT22;30743;52.008;5.644;2023-09-18T06:21:03;24.80;99.90
45008;DHT22;30743;52.008;5.644;2023-09-18T06:23:29;24.80;99.90
45008;DHT22;30743;52.008;5.644;2023-09-18T06:25:54;24.70;99.90
45008;DHT22;30743;52.008;5.644;2023-09-18T06:28:22;24.60;99.90
45008;DHT22;30743;52.008;5.644;2023-09-18T06:30:47;24.60;99.90
45008;DHT22;30743;52.008;5.644;2023-09-18T06:33:13;24.40;99.90
45008;DHT22;30743;52.008;5.644;2023-09-18T06:35:39;24.20;99.90
45008;DHT22;30743;52.008;5.644;2023-09-18T06:38:05;24.00;99.90
45008;DHT22;30743;52.008;5.644;2023-09-18T06:40:32;23.90;99.90
45008;DHT22;30743;52.008;5.644;2023-09-18T06:43:00;23.70;99.90
45008;DHT22;30743;52.008;5.644;2023-09-18T06:45:26;23.60;99.90
45008;DHT22;30743;52.008;5.644;2023-09-18T06:47:52;23.60;99.90
45008;DHT22;30743;52.008;5.644;2023-09-18T06:50:18;23.50;99.90
45008;DHT22;30743;52.008;5.644;2023-09-18T06:52:44;23.50;99.90
45008;DHT22;30743;52.008;5.644;2023-09-18T06:55:09;23.50;99.90
45008;DHT22;30743;52.008;5.644;2023-09-18T06:57:35;23.50;99.90
45008;DHT22;30743;52.008;5.644;2023-09-18T07:00:01;23.50;99.90
45008;DHT22;30743;52.008;5.644;2023-09-18T07:02:26;23.50;99.90
45008;DHT22;30743;52.008;5.644;2023-09-18T07:04:52;23.30;99.90
45008;DHT22;30743;52.008;5.644;2023-09-18T07:07:18;23.40;99.90
45008;DHT22;30743;52.008;5.644;2023-09-18T07:09:50;23.40;99.90
45008;DHT22;30743;52.008;5.644;2023-09-18T07:12:16;23.50;99.90
45008;DHT22;30743;52.008;5.644;2023-09-18T07:14:45;23.50;99.90
45008;DHT22;30743;52.008;5.644;2023-09-18T07:17:11;23.30;99.90
45008;DHT22;30743;52.008;5.644;2023-09-18T07:19:36;23.30;99.90
45008;DHT22;30743;52.008;5.644;2023-09-18T07:22:02;23.40;99.90
45008;DHT22;30743;52.008;5.644;2023-09-18T07:24:27;23.50;99.90
45008;DHT22;30743;52.008;5.644;2023-09-18T07:26:53;23.50;99.90
45008;DHT22;30743;52.008;5.644;2023-09-18T07:29:20;23.50;99.90
45008;DHT22;30743;52.008;5.644;2023-09-18T07:31:46;23.40;99.90
45008;DHT22;30743;52.008;5.644;2023-09-18T07:34:13;23.50;99.90
45008;DHT22;30743;52.008;5.644;2023-09-18T07:36:39;23.50;99.90
45008;DHT22;30743;52.008;5.644;2023-09-18T07:39:05;23.60;99.90
45008;DHT22;30743;52.008;5.644;2023-09-18T07:41:31;23.60;99.90
45008;DHT22;30743;52.008;5.644;2023-09-18T07:43:57;23.80;99.90
45008;DHT22;30743;52.008;5.644;2023-09-18T07:46:25;23.80;99.90
45008;DHT22;30743;52.008;5.644;2023-09-18T07:48:51;23.90;99.90
45008;DHT22;30743;52.008;5.644;2023-09-18T07:51:16;23.80;99.90
45008;DHT22;30743;52.008;5.644;2023-09-18T07:53:43;23.60;99.90
45008;DHT22;30743;52.008;5.644;2023-09-18T07:56:08;23.50;99.90
45008;DHT22;30743;52.008;5.644;2023-09-18T07:58:34;23.60;99.90
45008;DHT22;30743;52.008;5.644;2023-09-18T08:01:03;23.50;99.90
45008;DHT22;30743;52.008;5.644;2023-09-18T08:03:31;23.40;99.90
45008;DHT22;30743;52.008;5.644;2023-09-18T08:05:57;23.50;99.90
45008;DHT22;30743;52.008;5.644;2023-09-18T08:08:23;23.60;99.90
45008;DHT22;30743;52.008;5.644;2023-09-18T08:10:49;23.70;99.90
45008;DHT22;30743;52.008;5.644;2023-09-18T08:13:15;23.70;99.90
45008;DHT22;30743;52.008;5.644;2023-09-18T08:15:41;23.70;99.90
45008;DHT22;30743;52.008;5.644;2023-09-18T08:18:07;23.90;99.90
45008;DHT22;30743;52.008;5.644;2023-09-18T08:20:32;24.00;99.90
45008;DHT22;30743;52.008;5.644;2023-09-18T08:22:58;23.90;99.90
45008;DHT22;30743;52.008;5.644;2023-09-18T08:25:27;24.00;99.90
45008;DHT22;30743;52.008;5.644;2023-09-18T08:27:52;23.80;99.90
45008;DHT22;30743;52.008;5.644;2023-09-18T08:30:18;23.90;99.90
45008;DHT22;30743;52.008;5.644;2023-09-18T08:32:46;23.80;99.90
45008;DHT22;30743;52.008;5.644;2023-09-18T08:35:13;23.80;99.90
45008;DHT22;30743;52.008;5.644;2023-09-18T08:37:42;23.80;99.90
45008;DHT22;30743;52.008;5.644;2023-09-18T08:40:10;23.90;99.90
45008;DHT22;30743;52.008;5.644;2023-09-18T08:42:47;23.70;99.90
45008;DHT22;30743;52.008;5.644;2023-09-18T08:45:29;23.70;99.90
45008;DHT22;30743;52.008;5.644;2023-09-18T08:47:56;24.00;99.90
45008;DHT22;30743;52.008;5.644;2023-09-18T08:50:23;24.20;99.90
45008;DHT22;30743;52.008;5.644;2023-09-18T08:52:49;24.50;99.90
45008;DHT22;30743;52.008;5.644;2023-09-18T08:55:16;24.70;99.90
45008;DHT22;30743;52.008;5.644;2023-09-18T08:57:42;24.90;99.90
45008;DHT22;30743;52.008;5.644;2023-09-18T09:00:10;24.50;99.90
45008;DHT22;30743;52.008;5.644;2023-09-18T09:02:42;24.60;99.90
45008;DHT22;30743;52.008;5.644;2023-09-18T09:05:07;24.40;99.90
45008;DHT22;30743;52.008;5.644;2023-09-18T09:07:33;24.30;99.90
45008;DHT22;30743;52.008;5.644;2023-09-18T09:09:58;24.30;99.90
45008;DHT22;30743;52.008;5.644;2023-09-18T09:12:53;24.30;99.90
45008;DHT22;30743;52.008;5.644;2023-09-18T09:15:23;24.40;99.90
45008;DHT22;30743;52.008;5.644;2023-09-18T09:17:50;24.30;99.90
45008;DHT22;30743;52.008;5.644;2023-09-18T09:20:16;24.20;99.90
45008;DHT22;30743;52.008;5.644;2023-09-18T09:22:44;24.40;99.90
45008;DHT22;30743;52.008;5.644;2023-09-18T09:25:26;24.60;99.90
45008;DHT22;30743;52.008;5.644;2023-09-18T09:27:55;24.60;99.90
45008;DHT22;30743;52.008;5.644;2023-09-18T09:30:23;24.70;99.90
45008;DHT22;30743;52.008;5.644;2023-09-18T09:32:50;24.90;99.90
45008;DHT22;30743;52.008;5.644;2023-09-18T09:35:27;25.10;99.90
45008;DHT22;30743;52.008;5.644;2023-09-18T09:37:56;25.40;99.90
45008;DHT22;30743;52.008;5.644;2023-09-18T09:40:22;26.00;99.90
45008;DHT22;30743;52.008;5.644;2023-09-18T09:42:50;26.40;99.90
45008;DHT22;30743;52.008;5.644;2023-09-18T09:45:17;26.90;99.90
45008;DHT22;30743;52.008;5.644;2023-09-18T09:47:43;27.50;99.90
45008;DHT22;30743;52.008;5.644;2023-09-18T09:50:13;27.80;99.90
45008;DHT22;30743;52.008;5.644;2023-09-18T09:52:42;28.30;99.90
45008;DHT22;30743;52.008;5.644;2023-09-18T09:55:30;28.60;99.90
45008;DHT22;30743;52.008;5.644;2023-09-18T09:58:01;28.80;99.90
45008;DHT22;30743;52.008;5.644;2023-09-18T10:00:36;28.90;99.90
45008;DHT22;30743;52.008;5.644;2023-09-18T10:03:10;28.50;99.90
45008;DHT22;30743;52.008;5.644;2023-09-18T10:05:38;28.20;99.90
45008;DHT22;30743;52.008;5.644;2023-09-18T10:08:08;27.90;99.90
45008;DHT22;30743;52.008;5.644;2023-09-18T10:10:40;27.30;99.90
45008;DHT22;30743;52.008;5.644;2023-09-18T10:13:10;26.90;99.90
45008;DHT22;30743;52.008;5.644;2023-09-18T10:15:38;26.50;99.90
45008;DHT22;30743;52.008;5.644;2023-09-18T10:18:07;26.30;99.90
45008;DHT22;30743;52.008;5.644;2023-09-18T10:20:38;25.60;99.90
45008;DHT22;30743;52.008;5.644;2023-09-18T10:23:15;25.30;99.90
45008;DHT22;30743;52.008;5.644;2023-09-18T10:25:48;25.10;99.90
45008;DHT22;30743;52.008;5.644;2023-09-18T10:28:16;24.90;99.90
45008;DHT22;30743;52.008;5.644;2023-09-18T10:30:42;24.90;99.90
45008;DHT22;30743;52.008;5.644;2023-09-18T10:33:08;24.40;99.90
45008;DHT22;30743;52.008;5.644;2023-09-18T10:35:34;24.50;99.90
45008;DHT22;30743;52.008;5.644;2023-09-18T10:38:02;24.60;99.90
45008;DHT22;30743;52.008;5.644;2023-09-18T10:40:31;24.80;99.90
45008;DHT22;30743;52.008;5.644;2023-09-18T10:42:59;24.80;99.90
45008;DHT22;30743;52.008;5.644;2023-09-18T10:45:27;24.70;99.90
45008;DHT22;30743;52.008;5.644;2023-09-18T10:47:54;24.30;99.90
45008;DHT22;30743;52.008;5.644;2023-09-18T10:50:28;24.20;99.90
45008;DHT22;30743;52.008;5.644;2023-09-18T10:52:57;24.00;99.90
45008;DHT22;30743;52.008;5.644;2023-09-18T10:55:23;23.90;99.90
45008;DHT22;30743;52.008;5.644;2023-09-18T10:57:54;23.90;99.90
45008;DHT22;30743;52.008;5.644;2023-09-18T11:00:23;24.00;99.90
45008;DHT22;30743;52.008;5.644;2023-09-18T11:06:08;24.50;99.90
45008;DHT22;30743;52.008;5.644;2023-09-18T11:11:10;25.80;99.90
45008;DHT22;30743;52.008;5.644;2023-09-18T11:16:18;27.10;99.90
45008;DHT22;30743;52.008;5.644;2023-09-18T11:18:47;27.60;99.90
45008;DHT22;30743;52.008;5.644;2023-09-18T11:21:15;27.40;99.90
45008;DHT22;30743;52.008;5.644;2023-09-18T11:23:43;27.70;99.90
45008;DHT22;30743;52.008;5.644;2023-09-18T11:26:10;27.20;99.90
45008;DHT22;30743;52.008;5.644;2023-09-18T11:28:36;26.70;99.90
45008;DHT22;30743;52.008;5.644;2023-09-18T11:31:03;26.20;99.90
45008;DHT22;30743;52.008;5.644;2023-09-18T11:36:11;25.80;99.90
45008;DHT22;30743;52.008;5.644;2023-09-18T11:38:53;26.00;99.90
45008;DHT22;30743;52.008;5.644;2023-09-18T11:43:50;27.30;99.90
45008;DHT22;30743;52.008;5.644;2023-09-18T11:46:20;27.60;99.90
45008;DHT22;30743;52.008;5.644;2023-09-18T11:48:49;27.60;99.90
45008;DHT22;30743;52.008;5.644;2023-09-18T11:51:22;27.40;99.90
45008;DHT22;30743;52.008;5.644;2023-09-18T11:53:51;27.50;99.90
45008;DHT22;30743;52.008;5.644;2023-09-18T11:56:17;27.70;99.90
45008;DHT22;30743;52.008;5.644;2023-09-18T11:58:48;27.70;99.90
45008;DHT22;30743;52.008;5.644;2023-09-18T12:01:14;27.50;99.90
45008;DHT22;30743;52.008;5.644;2023-09-18T12:03:41;27.10;99.90
45008;DHT22;30743;52.008;5.644;2023-09-18T12:06:07;27.00;99.90
45008;DHT22;30743;52.008;5.644;2023-09-18T12:08:35;26.70;99.90
45008;DHT22;30743;52.008;5.644;2023-09-18T12:11:05;26.40;99.90
45008;DHT22;30743;52.008;5.644;2023-09-18T12:13:33;26.10;99.90
45008;DHT22;30743;52.008;5.644;2023-09-18T12:16:03;25.90;99.90
45008;DHT22;30743;52.008;5.644;2023-09-18T12:18:32;25.90;99.90
45008;DHT22;30743;52.008;5.644;2023-09-18T12:21:01;25.70;99.90
45008;DHT22;30743;52.008;5.644;2023-09-18T12:23:36;25.70;99.90
45008;DHT22;30743;52.008;5.644;2023-09-18T12:26:01;25.50;99.90
45008;DHT22;30743;52.008;5.644;2023-09-18T12:28:29;25.60;99.90
45008;DHT22;30743;52.008;5.644;2023-09-18T12:30:55;25.30;99.90
45008;DHT22;30743;52.008;5.644;2023-09-18T12:33:22;25.00;99.90
45008;DHT22;30743;52.008;5.644;2023-09-18T12:35:49;25.00;99.90
45008;DHT22;30743;52.008;5.644;2023-09-18T12:38:18;25.30;99.90
45008;DHT22;30743;52.008;5.644;2023-09-18T12:40:48;25.80;99.90
45008;DHT22;30743;52.008;5.644;2023-09-18T12:43:14;26.30;99.90
45008;DHT22;30743;52.008;5.644;2023-09-18T12:45:42;26.30;99.90
45008;DHT22;30743;52.008;5.644;2023-09-18T12:48:09;26.30;99.90
45008;DHT22;30743;52.008;5.644;2023-09-18T12:50:36;26.60;99.90
45008;DHT22;30743;52.008;5.644;2023-09-18T12:55:33;26.90;99.90
45008;DHT22;30743;52.008;5.644;2023-09-18T12:57:59;26.70;99.90
45008;DHT22;30743;52.008;5.644;2023-09-18T13:00:26;26.90;99.90
45008;DHT22;30743;52.008;5.644;2023-09-18T13:02:52;27.00;99.90
45008;DHT22;30743;52.008;5.644;2023-09-18T13:05:21;27.00;99.90
45008;DHT22;30743;52.008;5.644;2023-09-18T13:07:50;27.10;99.90
45008;DHT22;30743;52.008;5.644;2023-09-18T13:10:16;27.10;99.90
45008;DHT22;30743;52.008;5.644;2023-09-18T13:12:52;27.60;99.90
45008;DHT22;30743;52.008;5.644;2023-09-18T13:15:29;27.80;99.90
45008;DHT22;30743;52.008;5.644;2023-09-18T13:17:56;28.10;99.90
45008;DHT22;30743;52.008;5.644;2023-09-18T13:20:24;28.00;99.90
45008;DHT22;30743;52.008;5.644;2023-09-18T13:22:51;28.30;99.90
45008;DHT22;30743;52.008;5.644;2023-09-18T13:25:24;28.10;99.90
45008;DHT22;30743;52.008;5.644;2023-09-18T13:27:51;27.90;99.90
45008;DHT22;30743;52.008;5.644;2023-09-18T13:30:16;27.70;99.90
45008;DHT22;30743;52.008;5.644;2023-09-18T13:32:44;27.60;99.90
45008;DHT22;30743;52.008;5.644;2023-09-18T13:35:10;27.50;99.90
45008;DHT22;30743;52.008;5.644;2023-09-18T13:37:39;27.60;99.90
45008;DHT22;30743;52.008;5.644;2023-09-18T13:40:05;27.40;99.90
45008;DHT22;30743;52.008;5.644;2023-09-18T13:42:37;27.50;99.90
45008;DHT22;30743;52.008;5.644;2023-09-18T13:45:04;27.60;99.90
45008;DHT22;30743;52.008;5.644;2023-09-18T13:47:32;27.70;99.90
45008;DHT22;30743;52.008;5.644;2023-09-18T13:49:59;27.80;99.90
45008;DHT22;30743;52.008;5.644;2023-09-18T13:52:32;27.80;99.90
45008;DHT22;30743;52.008;5.644;2023-09-18T13:54:58;27.60;99.90
45008;DHT22;30743;52.008;5.644;2023-09-18T13:57:24;27.50;99.90
45008;DHT22;30743;52.008;5.644;2023-09-18T13:59:51;27.30;99.90
45008;DHT22;30743;52.008;5.644;2023-09-18T14:02:18;27.10;99.90
45008;DHT22;30743;52.008;5.644;2023-09-18T14:04:44;27.00;99.90
45008;DHT22;30743;52.008;5.644;2023-09-18T14:07:11;27.10;99.90
45008;DHT22;30743;52.008;5.644;2023-09-18T14:09:37;27.10;99.90
45008;DHT22;30743;52.008;5.644;2023-09-18T14:12:03;27.10;99.90
45008;DHT22;30743;52.008;5.644;2023-09-18T14:14:29;27.10;99.90
45008;DHT22;30743;52.008;5.644;2023-09-18T14:16:55;27.20;99.90
45008;DHT22;30743;52.008;5.644;2023-09-18T14:19:21;27.40;99.90
45008;DHT22;30743;52.008;5.644;2023-09-18T14:21:46;27.50;99.90
45008;DHT22;30743;52.008;5.644;2023-09-18T14:24:14;27.40;99.90
45008;DHT22;30743;52.008;5.644;2023-09-18T14:26:40;27.40;99.90
45008;DHT22;30743;52.008;5.644;2023-09-18T14:29:12;27.10;99.90
45008;DHT22;30743;52.008;5.644;2023-09-18T14:31:39;27.00;99.90
45008;DHT22;30743;52.008;5.644;2023-09-18T14:34:05;26.90;99.90
45008;DHT22;30743;52.008;5.644;2023-09-18T14:36:34;26.80;99.90
45008;DHT22;30743;52.008;5.644;2023-09-18T14:39:00;26.80;99.90
45008;DHT22;30743;52.008;5.644;2023-09-18T14:41:26;26.60;99.90
45008;DHT22;30743;52.008;5.644;2023-09-18T14:43:52;26.30;99.90
45008;DHT22;30743;52.008;5.644;2023-09-18T14:46:18;26.20;99.90
45008;DHT22;30743;52.008;5.644;2023-09-18T14:48:44;26.20;99.90
45008;DHT22;30743;52.008;5.644;2023-09-18T14:51:09;26.30;99.90
45008;DHT22;30743;52.008;5.644;2023-09-18T14:53:35;26.20;99.90
45008;DHT22;30743;52.008;5.644;2023-09-18T14:56:01;26.10;99.90
45008;DHT22;30743;52.008;5.644;2023-09-18T14:58:26;26.20;99.90
45008;DHT22;30743;52.008;5.644;2023-09-18T15:00:53;25.90;99.90
45008;DHT22;30743;52.008;5.644;2023-09-18T15:03:19;26.00;99.90
45008;DHT22;30743;52.008;5.644;2023-09-18T15:05:44;25.90;99.90
45008;DHT22;30743;52.008;5.644;2023-09-18T15:08:10;25.80;99.90
45008;DHT22;30743;52.008;5.644;2023-09-18T15:10:37;25.90;99.90
45008;DHT22;30743;52.008;5.644;2023-09-18T15:13:02;25.70;99.90
45008;DHT22;30743;52.008;5.644;2023-09-18T15:15:28;25.60;99.90
45008;DHT22;30743;52.008;5.644;2023-09-18T15:17:54;25.40;99.90
45008;DHT22;30743;52.008;5.644;2023-09-18T15:20:20;25.00;99.90
45008;DHT22;30743;52.008;5.644;2023-09-18T15:22:49;23.60;99.90
45008;DHT22;30743;52.008;5.644;2023-09-18T15:25:15;22.20;99.90
45008;DHT22;30743;52.008;5.644;2023-09-18T15:27:41;21.30;99.90
45008;DHT22;30743;52.008;5.644;2023-09-18T15:30:07;20.50;99.90
45008;DHT22;30743;52.008;5.644;2023-09-18T15:32:53;20.10;99.90
45008;DHT22;30743;52.008;5.644;2023-09-18T15:35:23;19.70;99.90
45008;DHT22;30743;52.008;5.644;2023-09-18T15:37:50;19.70;99.90
45008;DHT22;30743;52.008;5.644;2023-09-18T15:40:15;19.80;99.90
45008;DHT22;30743;52.008;5.644;2023-09-18T15:42:43;19.50;99.90
45008;DHT22;30743;52.008;5.644;2023-09-18T15:45:10;19.20;99.90
45008;DHT22;30743;52.008;5.644;2023-09-18T15:47:42;19.20;99.90